sensor_id;sensor_type;location;lat;lon;timestamp;temperature;humidity
15099;DHT22;33900;53.640;9.942;2024-03-25T00:01:52;9.40;91.70
15099;DHT22;33900;53.640;9.942;2024-03-25T00:04:17;9.40;91.60
15099;DHT22;33900;53.640;9.942;2024-03-25T00:06:43;9.40;91.50
15099;DHT22;33900;53.640;9.942;2024-03-25T00:09:08;9.40;91.50
15099;DHT22;33900;53.640;9.942;2024-03-25T00:11:40;9.40;91.50
15099;DHT22;33900;53.640;9.942;2024-03-25T00:14:05;9.40;91.60
15099;DHT22;33900;53.640;9.942;2024-03-25T00:16:31;9.40;91.60
15099;DHT22;33900;53.640;9.942;2024-03-25T00:18:56;9.40;91.60
15099;DHT22;33900;53.640;9.942;2024-03-25T00:21:22;9.40;91.60
15099;DHT22;33900;53.640;9.942;2024-03-25T00:23:47;9.40;91.60
15099;DHT22;33900;53.640;9.942;2024-03-25T00:26:13;9.40;91.60
15099;DHT22;33900;53.640;9.942;2024-03-25T00:28:39;9.40;91.60
15099;DHT22;33900;53.640;9.942;2024-03-25T00:31:04;9.40;91.60
15099;DHT22;33900;53.640;9.942;2024-03-25T00:33:30;9.40;91.60
15099;DHT22;33900;53.640;9.942;2024-03-25T00:35:55;9.40;91.70
15099;DHT22;33900;53.640;9.942;2024-03-25T00:38:21;9.40;91.60
15099;DHT22;33900;53.640;9.942;2024-03-25T00:40:47;9.40;91.70
15099;DHT22;33900;53.640;9.942;2024-03-25T00:43:12;9.40;91.80
15099;DHT22;33900;53.640;9.942;2024-03-25T00:45:38;9.40;91.70
15099;DHT22;33900;53.640;9.942;2024-03-25T00:48:03;9.30;91.70
15099;DHT22;33900;53.640;9.942;2024-03-25T00:50:29;9.40;91.80
15099;DHT22;33900;53.640;9.942;2024-03-25T00:52:56;9.40;91.90
15099;DHT22;33900;53.640;9.942;2024-03-25T00:55:22;9.40;91.90
15099;DHT22;33900;53.640;9.942;2024-03-25T00:57:47;9.40;92.00
15099;DHT22;33900;53.640;9.942;2024-03-25T01:00:13;9.30;92.00
15099;DHT22;33900;53.640;9.942;2024-03-25T01:02:41;9.30;92.10
15099;DHT22;33900;53.640;9.942;2024-03-25T01:05:07;9.40;92.10
15099;DHT22;33900;53.640;9.942;2024-03-25T01:07:32;9.30;92.00
15099;DHT22;33900;53.640;9.942;2024-03-25T01:09:58;9.40;92.10
15099;DHT22;33900;53.640;9.942;2024-03-25T01:12:26;9.40;92.20
15099;DHT22;33900;53.640;9.942;2024-03-25T01:14:52;9.40;92.30
15099;DHT22;33900;53.640;9.942;2024-03-25T01:17:18;9.40;92.30
15099;DHT22;33900;53.640;9.942;2024-03-25T01:19:44;9.40;92.50
15099;DHT22;33900;53.640;9.942;2024-03-25T01:22:10;9.30;92.60
15099;DHT22;33900;53.640;9.942;2024-03-25T01:24:35;9.30;92.70
15099;DHT22;33900;53.640;9.942;2024-03-25T01:27:02;9.30;92.70
15099;DHT22;33900;53.640;9.942;2024-03-25T01:29:27;9.30;92.70
15099;DHT22;33900;53.640;9.942;2024-03-25T01:31:53;9.30;92.70
15099;DHT22;33900;53.640;9.942;2024-03-25T01:34:21;9.20;92.70
15099;DHT22;33900;53.640;9.942;2024-03-25T01:36:46;9.30;92.70
15099;DHT22;33900;53.640;9.942;2024-03-25T01:39:12;9.30;92.80
15099;DHT22;33900;53.640;9.942;2024-03-25T01:41:37;9.30;92.80
15099;DHT22;33900;53.640;9.942;2024-03-25T01:44:03;9.30;92.90
15099;DHT22;33900;53.640;9.942;2024-03-25T01:46:29;9.30;92.90
15099;DHT22;33900;53.640;9.942;2024-03-25T01:48:54;9.30;92.80
15099;DHT22;33900;53.640;9.942;2024-03-25T01:51:23;9.30;92.90
15099;DHT22;33900;53.640;9.942;2024-03-25T01:53:49;9.30;92.90
15099;DHT22;33900;53.640;9.942;2024-03-25T01:56:16;9.30;92.90
15099;DHT22;33900;53.640;9.942;2024-03-25T01:58:43;9.30;92.90
15099;DHT22;33900;53.640;9.942;2024-03-25T02:01:09;9.30;92.80
15099;DHT22;33900;53.640;9.942;2024-03-25T02:03:39;9.30;92.90
15099;DHT22;33900;53.640;9.942;2024-03-25T02:06:06;9.30;92.90
15099;DHT22;33900;53.640;9.942;2024-03-25T02:08:34;9.30;92.80
15099;DHT22;33900;53.640;9.942;2024-03-25T02:10:59;9.30;92.90
15099;DHT22;33900;53.640;9.942;2024-03-25T02:13:25;9.40;93.00
15099;DHT22;33900;53.640;9.942;2024-03-25T02:15:51;9.30;93.00
15099;DHT22;33900;53.640;9.942;2024-03-25T02:18:17;9.30;93.00
15099;DHT22;33900;53.640;9.942;2024-03-25T02:20:43;9.30;93.00
15099;DHT22;33900;53.640;9.942;2024-03-25T02:23:08;9.20;93.00
15099;DHT22;33900;53.640;9.942;2024-03-25T02:25:36;9.20;93.00
15099;DHT22;33900;53.640;9.942;2024-03-25T02:28:03;9.20;93.10
15099;DHT22;33900;53.640;9.942;2024-03-25T02:30:32;9.20;93.20
15099;DHT22;33900;53.640;9.942;2024-03-25T02:32:58;9.10;93.10
15099;DHT22;33900;53.640;9.942;2024-03-25T02:35:24;9.10;93.10
15099;DHT22;33900;53.640;9.942;2024-03-25T02:37:50;9.10;93.10
15099;DHT22;33900;53.640;9.942;2024-03-25T02:40:16;9.10;93.20
15099;DHT22;33900;53.640;9.942;2024-03-25T02:42:42;9.10;93.20
15099;DHT22;33900;53.640;9.942;2024-03-25T02:45:08;9.10;93.20
15099;DHT22;33900;53.640;9.942;2024-03-25T02:47:34;9.10;93.20
15099;DHT22;33900;53.640;9.942;2024-03-25T02:49:59;9.10;93.20
15099;DHT22;33900;53.640;9.942;2024-03-25T02:52:25;9.10;93.20
15099;DHT22;33900;53.640;9.942;2024-03-25T02:54:51;9.10;93.20
15099;DHT22;33900;53.640;9.942;2024-03-25T02:57:16;9.10;93.20
15099;DHT22;33900;53.640;9.942;2024-03-25T02:59:42;9.10;93.20
15099;DHT22;33900;53.640;9.942;2024-03-25T03:02:16;9.10;93.20
15099;DHT22;33900;53.640;9.942;2024-03-25T03:04:42;9.10;93.20
15099;DHT22;33900;53.640;9.942;2024-03-25T03:07:08;9.10;93.20
15099;DHT22;33900;53.640;9.942;2024-03-25T03:09:33;9.10;93.30
15099;DHT22;33900;53.640;9.942;2024-03-25T03:11:59;9.10;93.30
15099;DHT22;33900;53.640;9.942;2024-03-25T03:14:25;9.10;93.30
15099;DHT22;33900;53.640;9.942;2024-03-25T03:16:50;9.00;93.30
15099;DHT22;33900;53.640;9.942;2024-03-25T03:19:20;9.00;93.30
15099;DHT22;33900;53.640;9.942;2024-03-25T03:21:45;9.00;93.30
15099;DHT22;33900;53.640;9.942;2024-03-25T03:24:11;9.00;93.30
15099;DHT22;33900;53.640;9.942;2024-03-25T03:26:36;9.00;93.30
15099;DHT22;33900;53.640;9.942;2024-03-25T03:29:02;9.00;93.30
15099;DHT22;33900;53.640;9.942;2024-03-25T03:31:28;9.00;93.30
15099;DHT22;33900;53.640;9.942;2024-03-25T03:33:55;9.00;93.30
15099;DHT22;33900;53.640;9.942;2024-03-25T03:36:22;9.00;93.30
15099;DHT22;33900;53.640;9.942;2024-03-25T03:38:50;9.00;93.30
15099;DHT22;33900;53.640;9.942;2024-03-25T03:41:16;9.00;93.30
15099;DHT22;33900;53.640;9.942;2024-03-25T03:43:41;9.00;93.30
15099;DHT22;33900;53.640;9.942;2024-03-25T03:46:07;9.00;93.30
15099;DHT22;33900;53.640;9.942;2024-03-25T03:48:32;9.10;93.40
15099;DHT22;33900;53.640;9.942;2024-03-25T03:50:58;9.00;93.30
15099;DHT22;33900;53.640;9.942;2024-03-25T03:53:23;9.00;93.30
15099;DHT22;33900;53.640;9.942;2024-03-25T03:55:53;9.00;93.30
15099;DHT22;33900;53.640;9.942;2024-03-25T03:58:18;9.00;93.30
15099;DHT22;33900;53.640;9.942;2024-03-25T04:00:46;9.00;93.40
15099;DHT22;33900;53.640;9.942;2024-03-25T04:03:11;9.00;93.40
15099;DHT22;33900;53.640;9.942;2024-03-25T04:05:37;9.00;93.30
15099;DHT22;33900;53.640;9.942;2024-03-25T04:08:02;9.00;93.30
15099;DHT22;33900;53.640;9.942;2024-03-25T04:10:28;9.00;93.30
15099;DHT22;33900;53.640;9.942;2024-03-25T04:12:54;9.00;93.30
15099;DHT22;33900;53.640;9.942;2024-03-25T04:15:21;9.00;93.30
15099;DHT22;33900;53.640;9.942;2024-03-25T04:17:47;9.00;93.30
15099;DHT22;33900;53.640;9.942;2024-03-25T04:20:14;9.00;93.30
15099;DHT22;33900;53.640;9.942;2024-03-25T04:22:41;9.00;93.30
15099;DHT22;33900;53.640;9.942;2024-03-25T04:25:07;9.00;93.30
15099;DHT22;33900;53.640;9.942;2024-03-25T04:27:33;9.00;93.30
15099;DHT22;33900;53.640;9.942;2024-03-25T04:29:59;9.00;93.60
15099;DHT22;33900;53.640;9.942;2024-03-25T04:32:25;8.90;93.10
15099;DHT22;33900;53.640;9.942;2024-03-25T04:34:51;8.90;93.10
15099;DHT22;33900;53.640;9.942;2024-03-25T04:37:16;8.90;93.10
15099;DHT22;33900;53.640;9.942;2024-03-25T04:39:42;8.90;93.10
15099;DHT22;33900;53.640;9.942;2024-03-25T04:42:07;8.90;93.20
15099;DHT22;33900;53.640;9.942;2024-03-25T04:44:33;8.90;93.10
15099;DHT22;33900;53.640;9.942;2024-03-25T04:46:58;8.90;93.10
15099;DHT22;33900;53.640;9.942;2024-03-25T04:49:24;8.90;93.10
15099;DHT22;33900;53.640;9.942;2024-03-25T04:51:49;8.90;93.10
15099;DHT22;33900;53.640;9.942;2024-03-25T04:54:17;8.90;93.10
15099;DHT22;33900;53.640;9.942;2024-03-25T04:56:42;8.90;93.10
15099;DHT22;33900;53.640;9.942;2024-03-25T04:59:09;8.90;93.00
15099;DHT22;33900;53.640;9.942;2024-03-25T05:01:35;8.90;93.00
15099;DHT22;33900;53.640;9.942;2024-03-25T05:04:02;8.90;93.00
15099;DHT22;33900;53.640;9.942;2024-03-25T05:06:27;8.90;93.00
15099;DHT22;33900;53.640;9.942;2024-03-25T05:08:53;8.90;93.00
15099;DHT22;33900;53.640;9.942;2024-03-25T05:11:19;8.90;93.00
15099;DHT22;33900;53.640;9.942;2024-03-25T05:13:45;8.90;93.00
15099;DHT22;33900;53.640;9.942;2024-03-25T05:16:10;8.90;93.00
15099;DHT22;33900;53.640;9.942;2024-03-25T05:18:36;8.90;93.00
15099;DHT22;33900;53.640;9.942;2024-03-25T05:21:02;8.90;93.00
15099;DHT22;33900;53.640;9.942;2024-03-25T05:23:28;8.90;92.90
15099;DHT22;33900;53.640;9.942;2024-03-25T05:25:53;8.80;92.90
15099;DHT22;33900;53.640;9.942;2024-03-25T05:28:21;8.90;92.90
15099;DHT22;33900;53.640;9.942;2024-03-25T05:30:46;8.80;92.90
15099;DHT22;33900;53.640;9.942;2024-03-25T05:33:12;8.80;92.90
15099;DHT22;33900;53.640;9.942;2024-03-25T05:35:38;8.80;92.90
15099;DHT22;33900;53.640;9.942;2024-03-25T05:38:06;8.80;92.90
15099;DHT22;33900;53.640;9.942;2024-03-25T05:40:31;8.80;92.90
15099;DHT22;33900;53.640;9.942;2024-03-25T05:42:57;8.80;92.90
15099;DHT22;33900;53.640;9.942;2024-03-25T05:45:22;8.70;92.90
15099;DHT22;33900;53.640;9.942;2024-03-25T05:47:49;8.80;93.00
15099;DHT22;33900;53.640;9.942;2024-03-25T05:50:15;8.80;93.00
15099;DHT22;33900;53.640;9.942;2024-03-25T05:52:41;8.80;93.00
15099;DHT22;33900;53.640;9.942;2024-03-25T05:55:07;8.80;93.00
15099;DHT22;33900;53.640;9.942;2024-03-25T05:57:35;8.80;93.00
15099;DHT22;33900;53.640;9.942;2024-03-25T06:00:01;8.80;93.00
15099;DHT22;33900;53.640;9.942;2024-03-25T06:02:26;8.80;93.00
15099;DHT22;33900;53.640;9.942;2024-03-25T06:04:52;8.80;93.00
15099;DHT22;33900;53.640;9.942;2024-03-25T06:07:20;8.80;93.20
15099;DHT22;33900;53.640;9.942;2024-03-25T06:09:45;8.80;93.00
15099;DHT22;33900;53.640;9.942;2024-03-25T06:12:12;8.80;93.00
15099;DHT22;33900;53.640;9.942;2024-03-25T06:14:38;8.80;93.40
15099;DHT22;33900;53.640;9.942;2024-03-25T06:17:04;9.00;93.10
15099;DHT22;33900;53.640;9.942;2024-03-25T06:19:30;8.90;93.10
15099;DHT22;33900;53.640;9.942;2024-03-25T06:21:55;8.90;93.10
15099;DHT22;33900;53.640;9.942;2024-03-25T06:24:21;8.90;93.00
15099;DHT22;33900;53.640;9.942;2024-03-25T06:26:46;8.90;93.00
15099;DHT22;33900;53.640;9.942;2024-03-25T06:29:13;8.90;93.00
15099;DHT22;33900;53.640;9.942;2024-03-25T06:31:38;8.90;93.00
15099;DHT22;33900;53.640;9.942;2024-03-25T06:34:23;8.90;93.00
15099;DHT22;33900;53.640;9.942;2024-03-25T06:36:51;9.00;93.10
15099;DHT22;33900;53.640;9.942;2024-03-25T06:39:16;9.00;93.10
15099;DHT22;33900;53.640;9.942;2024-03-25T06:41:42;9.00;93.10
15099;DHT22;33900;53.640;9.942;2024-03-25T06:44:07;9.00;93.10
15099;DHT22;33900;53.640;9.942;2024-03-25T06:46:33;9.00;93.00
15099;DHT22;33900;53.640;9.942;2024-03-25T06:48:59;9.00;93.00
15099;DHT22;33900;53.640;9.942;2024-03-25T06:51:25;9.00;93.00
15099;DHT22;33900;53.640;9.942;2024-03-25T06:53:50;9.00;93.00
15099;DHT22;33900;53.640;9.942;2024-03-25T06:56:17;9.00;93.00
15099;DHT22;33900;53.640;9.942;2024-03-25T06:58:43;9.00;93.10
15099;DHT22;33900;53.640;9.942;2024-03-25T07:01:09;9.00;93.00
15099;DHT22;33900;53.640;9.942;2024-03-25T07:03:36;9.00;93.10
15099;DHT22;33900;53.640;9.942;2024-03-25T07:06:01;9.00;93.10
15099;DHT22;33900;53.640;9.942;2024-03-25T07:08:27;9.10;93.10
15099;DHT22;33900;53.640;9.942;2024-03-25T07:10:53;9.10;93.20
15099;DHT22;33900;53.640;9.942;2024-03-25T07:13:20;9.10;93.10
15099;DHT22;33900;53.640;9.942;2024-03-25T07:15:45;9.20;93.20
15099;DHT22;33900;53.640;9.942;2024-03-25T07:18:11;9.20;93.20
15099;DHT22;33900;53.640;9.942;2024-03-25T07:20:38;9.20;93.20
15099;DHT22;33900;53.640;9.942;2024-03-25T07:23:08;9.20;93.20
15099;DHT22;33900;53.640;9.942;2024-03-25T07:25:34;9.30;93.20
15099;DHT22;33900;53.640;9.942;2024-03-25T07:27:59;9.20;93.10
15099;DHT22;33900;53.640;9.942;2024-03-25T07:30:25;9.20;93.10
15099;DHT22;33900;53.640;9.942;2024-03-25T07:32:54;9.20;93.10
15099;DHT22;33900;53.640;9.942;2024-03-25T07:35:19;9.30;93.10
15099;DHT22;33900;53.640;9.942;2024-03-25T07:37:45;9.30;93.10
15099;DHT22;33900;53.640;9.942;2024-03-25T07:40:11;9.30;93.10
15099;DHT22;33900;53.640;9.942;2024-03-25T07:42:40;9.30;93.10
15099;DHT22;33900;53.640;9.942;2024-03-25T07:45:05;9.30;93.10
15099;DHT22;33900;53.640;9.942;2024-03-25T07:47:31;9.30;93.10
15099;DHT22;33900;53.640;9.942;2024-03-25T07:49:57;9.40;93.20
15099;DHT22;33900;53.640;9.942;2024-03-25T07:52:24;9.50;93.20
15099;DHT22;33900;53.640;9.942;2024-03-25T07:54:50;9.50;93.20
15099;DHT22;33900;53.640;9.942;2024-03-25T07:57:16;9.50;93.10
15099;DHT22;33900;53.640;9.942;2024-03-25T07:59:42;9.50;93.00
15099;DHT22;33900;53.640;9.942;2024-03-25T08:02:07;9.50;93.00
15099;DHT22;33900;53.640;9.942;2024-03-25T08:04:34;9.50;93.00
15099;DHT22;33900;53.640;9.942;2024-03-25T08:07:00;9.50;93.00
15099;DHT22;33900;53.640;9.942;2024-03-25T08:09:25;9.50;93.00
15099;DHT22;33900;53.640;9.942;2024-03-25T08:11:51;9.50;93.00
15099;DHT22;33900;53.640;9.942;2024-03-25T08:14:17;9.50;93.00
15099;DHT22;33900;53.640;9.942;2024-03-25T08:16:42;9.50;93.00
15099;DHT22;33900;53.640;9.942;2024-03-25T08:19:08;9.50;93.00
15099;DHT22;33900;53.640;9.942;2024-03-25T08:21:34;9.50;93.10
15099;DHT22;33900;53.640;9.942;2024-03-25T08:24:00;9.50;93.10
15099;DHT22;33900;53.640;9.942;2024-03-25T08:26:25;9.60;93.20
15099;DHT22;33900;53.640;9.942;2024-03-25T08:28:51;9.70;93.20
15099;DHT22;33900;53.640;9.942;2024-03-25T08:31:17;9.70;93.20
15099;DHT22;33900;53.640;9.942;2024-03-25T08:33:43;9.80;93.30
15099;DHT22;33900;53.640;9.942;2024-03-25T08:36:08;9.90;93.30
15099;DHT22;33900;53.640;9.942;2024-03-25T08:38:34;10.10;93.50
15099;DHT22;33900;53.640;9.942;2024-03-25T08:41:00;10.40;94.20
15099;DHT22;33900;53.640;9.942;2024-03-25T08:43:25;10.60;93.80
15099;DHT22;33900;53.640;9.942;2024-03-25T08:45:51;10.60;93.30
15099;DHT22;33900;53.640;9.942;2024-03-25T08:48:16;10.70;93.10
15099;DHT22;33900;53.640;9.942;2024-03-25T08:50:42;10.60;92.90
15099;DHT22;33900;53.640;9.942;2024-03-25T08:53:08;10.60;92.80
15099;DHT22;33900;53.640;9.942;2024-03-25T08:55:33;10.60;92.70
15099;DHT22;33900;53.640;9.942;2024-03-25T08:57:59;10.60;92.70
15099;DHT22;33900;53.640;9.942;2024-03-25T09:00:25;10.80;92.70
15099;DHT22;33900;53.640;9.942;2024-03-25T09:02:50;10.90;92.70
15099;DHT22;33900;53.640;9.942;2024-03-25T09:05:16;11.10;92.80
15099;DHT22;33900;53.640;9.942;2024-03-25T09:07:49;11.40;92.50
15099;DHT22;33900;53.640;9.942;2024-03-25T09:10:17;11.70;92.20
15099;DHT22;33900;53.640;9.942;2024-03-25T09:13:02;11.90;91.50
15099;DHT22;33900;53.640;9.942;2024-03-25T09:15:29;12.00;91.00
15099;DHT22;33900;53.640;9.942;2024-03-25T09:17:54;12.20;91.10
15099;DHT22;33900;53.640;9.942;2024-03-25T09:20:20;12.30;90.40
15099;DHT22;33900;53.640;9.942;2024-03-25T09:22:46;12.40;90.30
15099;DHT22;33900;53.640;9.942;2024-03-25T09:25:14;12.60;89.70
15099;DHT22;33900;53.640;9.942;2024-03-25T09:27:39;12.60;88.70
15099;DHT22;33900;53.640;9.942;2024-03-25T09:30:05;12.80;88.30
15099;DHT22;33900;53.640;9.942;2024-03-25T09:32:31;12.90;88.40
15099;DHT22;33900;53.640;9.942;2024-03-25T09:34:57;12.90;87.50
15099;DHT22;33900;53.640;9.942;2024-03-25T09:37:23;12.90;87.70
15099;DHT22;33900;53.640;9.942;2024-03-25T09:39:48;12.90;87.70
15099;DHT22;33900;53.640;9.942;2024-03-25T09:42:15;12.90;87.30
15099;DHT22;33900;53.640;9.942;2024-03-25T09:44:42;13.10;86.80
15099;DHT22;33900;53.640;9.942;2024-03-25T09:47:09;13.00;86.20
15099;DHT22;33900;53.640;9.942;2024-03-25T09:49:37;12.90;86.00
15099;DHT22;33900;53.640;9.942;2024-03-25T09:52:05;12.70;85.50
15099;DHT22;33900;53.640;9.942;2024-03-25T09:54:31;12.60;85.30
15099;DHT22;33900;53.640;9.942;2024-03-25T09:56:57;12.30;85.30
15099;DHT22;33900;53.640;9.942;2024-03-25T09:59:23;12.20;85.90
15099;DHT22;33900;53.640;9.942;2024-03-25T10:01:49;12.10;86.10
15099;DHT22;33900;53.640;9.942;2024-03-25T10:04:14;12.00;86.40
15099;DHT22;33900;53.640;9.942;2024-03-25T10:06:40;12.10;87.20
15099;DHT22;33900;53.640;9.942;2024-03-25T10:09:05;12.20;87.80
15099;DHT22;33900;53.640;9.942;2024-03-25T10:11:34;12.50;88.40
15099;DHT22;33900;53.640;9.942;2024-03-25T10:14:01;12.60;86.10
15099;DHT22;33900;53.640;9.942;2024-03-25T10:16:27;12.60;85.60
15099;DHT22;33900;53.640;9.942;2024-03-25T10:18:52;12.70;85.80
15099;DHT22;33900;53.640;9.942;2024-03-25T10:21:21;12.70;86.10
15099;DHT22;33900;53.640;9.942;2024-03-25T10:23:49;12.80;85.50
15099;DHT22;33900;53.640;9.942;2024-03-25T10:26:33;12.80;85.60
15099;DHT22;33900;53.640;9.942;2024-03-25T10:29:01;12.90;85.20
15099;DHT22;33900;53.640;9.942;2024-03-25T10:31:27;12.90;85.00
15099;DHT22;33900;53.640;9.942;2024-03-25T10:33:53;12.90;83.20
15099;DHT22;33900;53.640;9.942;2024-03-25T10:36:19;12.80;82.30
15099;DHT22;33900;53.640;9.942;2024-03-25T10:38:46;12.70;81.80
15099;DHT22;33900;53.640;9.942;2024-03-25T10:41:14;12.50;81.50
15099;DHT22;33900;53.640;9.942;2024-03-25T10:43:42;12.40;82.50
15099;DHT22;33900;53.640;9.942;2024-03-25T10:46:09;12.30;82.10
15099;DHT22;33900;53.640;9.942;2024-03-25T10:48:35;12.10;82.00
15099;DHT22;33900;53.640;9.942;2024-03-25T10:51:03;12.10;82.30
15099;DHT22;33900;53.640;9.942;2024-03-25T10:53:28;12.10;83.20
15099;DHT22;33900;53.640;9.942;2024-03-25T10:55:55;12.20;83.80
15099;DHT22;33900;53.640;9.942;2024-03-25T10:58:23;12.40;83.80
15099;DHT22;33900;53.640;9.942;2024-03-25T11:00:50;12.50;83.70
15099;DHT22;33900;53.640;9.942;2024-03-25T11:03:16;12.80;83.40
15099;DHT22;33900;53.640;9.942;2024-03-25T11:05:42;12.90;81.10
15099;DHT22;33900;53.640;9.942;2024-03-25T11:10:40;12.70;78.80
15099;DHT22;33900;53.640;9.942;2024-03-25T11:13:10;12.60;78.50
15099;DHT22;33900;53.640;9.942;2024-03-25T11:15:36;12.50;78.80
15099;DHT22;33900;53.640;9.942;2024-03-25T11:18:03;12.40;78.80
15099;DHT22;33900;53.640;9.942;2024-03-25T11:20:31;12.30;79.40
15099;DHT22;33900;53.640;9.942;2024-03-25T11:22:58;12.30;79.50
15099;DHT22;33900;53.640;9.942;2024-03-25T11:25:33;12.30;80.40
15099;DHT22;33900;53.640;9.942;2024-03-25T11:27:58;12.30;80.00
15099;DHT22;33900;53.640;9.942;2024-03-25T11:30:24;12.40;80.50
15099;DHT22;33900;53.640;9.942;2024-03-25T11:32:52;12.50;81.00
15099;DHT22;33900;53.640;9.942;2024-03-25T11:35:18;12.50;81.20
15099;DHT22;33900;53.640;9.942;2024-03-25T11:37:44;12.50;80.60
15099;DHT22;33900;53.640;9.942;2024-03-25T11:40:10;12.50;79.60
15099;DHT22;33900;53.640;9.942;2024-03-25T11:42:38;12.50;79.10
15099;DHT22;33900;53.640;9.942;2024-03-25T11:45:05;12.40;78.40
15099;DHT22;33900;53.640;9.942;2024-03-25T11:47:30;12.40;79.20
15099;DHT22;33900;53.640;9.942;2024-03-25T11:49:56;12.40;79.90
15099;DHT22;33900;53.640;9.942;2024-03-25T11:52:22;12.40;80.00
15099;DHT22;33900;53.640;9.942;2024-03-25T11:54:54;12.50;80.10
15099;DHT22;33900;53.640;9.942;2024-03-25T11:57:20;12.50;79.40
15099;DHT22;33900;53.640;9.942;2024-03-25T11:59:46;12.50;79.30
15099;DHT22;33900;53.640;9.942;2024-03-25T12:02:15;12.50;78.40
15099;DHT22;33900;53.640;9.942;2024-03-25T12:04:42;12.60;77.50
15099;DHT22;33900;53.640;9.942;2024-03-25T12:07:08;12.70;77.10
15099;DHT22;33900;53.640;9.942;2024-03-25T12:09:35;12.80;77.40
15099;DHT22;33900;53.640;9.942;2024-03-25T12:12:20;12.80;76.90
15099;DHT22;33900;53.640;9.942;2024-03-25T12:14:45;12.90;77.60
15099;DHT22;33900;53.640;9.942;2024-03-25T12:17:11;13.00;77.70
15099;DHT22;33900;53.640;9.942;2024-03-25T12:19:37;13.10;76.30
15099;DHT22;33900;53.640;9.942;2024-03-25T12:22:02;13.10;76.10
15099;DHT22;33900;53.640;9.942;2024-03-25T12:24:28;13.10;75.90
15099;DHT22;33900;53.640;9.942;2024-03-25T12:26:54;13.10;75.20
15099;DHT22;33900;53.640;9.942;2024-03-25T12:29:20;13.10;75.60
15099;DHT22;33900;53.640;9.942;2024-03-25T12:31:53;13.10;75.70
15099;DHT22;33900;53.640;9.942;2024-03-25T12:34:18;13.10;76.00
15099;DHT22;33900;53.640;9.942;2024-03-25T12:36:44;13.20;76.90
15099;DHT22;33900;53.640;9.942;2024-03-25T12:39:15;13.40;78.20
15099;DHT22;33900;53.640;9.942;2024-03-25T12:41:40;13.50;78.00
15099;DHT22;33900;53.640;9.942;2024-03-25T12:44:06;13.60;78.10
15099;DHT22;33900;53.640;9.942;2024-03-25T12:46:32;13.60;77.60
15099;DHT22;33900;53.640;9.942;2024-03-25T12:48:58;13.50;75.60
15099;DHT22;33900;53.640;9.942;2024-03-25T12:51:24;13.40;75.50
15099;DHT22;33900;53.640;9.942;2024-03-25T12:53:50;13.30;76.30
15099;DHT22;33900;53.640;9.942;2024-03-25T12:56:16;13.20;76.60
15099;DHT22;33900;53.640;9.942;2024-03-25T12:58:41;13.20;76.10
15099;DHT22;33900;53.640;9.942;2024-03-25T13:01:07;13.10;76.00
15099;DHT22;33900;53.640;9.942;2024-03-25T13:03:33;13.00;76.50
15099;DHT22;33900;53.640;9.942;2024-03-25T13:05:58;13.00;77.40
15099;DHT22;33900;53.640;9.942;2024-03-25T13:08:25;13.00;78.40
15099;DHT22;33900;53.640;9.942;2024-03-25T13:10:50;13.20;79.00
15099;DHT22;33900;53.640;9.942;2024-03-25T13:13:16;13.30;79.30
15099;DHT22;33900;53.640;9.942;2024-03-25T13:15:41;13.60;79.80
15099;DHT22;33900;53.640;9.942;2024-03-25T13:18:08;13.70;80.80
15099;DHT22;33900;53.640;9.942;2024-03-25T13:20:34;13.80;77.80
15099;DHT22;33900;53.640;9.942;2024-03-25T13:23:00;13.90;76.80
15099;DHT22;33900;53.640;9.942;2024-03-25T13:25:26;13.80;75.50
15099;DHT22;33900;53.640;9.942;2024-03-25T13:27:54;13.70;75.00
15099;DHT22;33900;53.640;9.942;2024-03-25T13:30:20;13.60;75.80
15099;DHT22;33900;53.640;9.942;2024-03-25T13:32:45;13.60;76.20
15099;DHT22;33900;53.640;9.942;2024-03-25T13:35:11;13.60;76.80
15099;DHT22;33900;53.640;9.942;2024-03-25T13:37:37;13.70;77.20
15099;DHT22;33900;53.640;9.942;2024-03-25T13:40:03;13.80;77.40
15099;DHT22;33900;53.640;9.942;2024-03-25T13:42:31;13.90;76.80
15099;DHT22;33900;53.640;9.942;2024-03-25T13:44:56;14.00;77.50
15099;DHT22;33900;53.640;9.942;2024-03-25T13:47:22;14.10;76.90
15099;DHT22;33900;53.640;9.942;2024-03-25T13:49:47;14.20;75.10
15099;DHT22;33900;53.640;9.942;2024-03-25T13:52:13;14.10;74.50
15099;DHT22;33900;53.640;9.942;2024-03-25T13:54:38;14.10;74.10
15099;DHT22;33900;53.640;9.942;2024-03-25T13:57:04;14.20;75.00
15099;DHT22;33900;53.640;9.942;2024-03-25T13:59:29;14.30;75.10
15099;DHT22;33900;53.640;9.942;2024-03-25T14:01:55;14.40;75.00
15099;DHT22;33900;53.640;9.942;2024-03-25T14:04:21;14.50;74.60
15099;DHT22;33900;53.640;9.942;2024-03-25T14:06:46;14.50;74.10
15099;DHT22;33900;53.640;9.942;2024-03-25T14:09:32;14.50;74.00
15099;DHT22;33900;53.640;9.942;2024-03-25T14:12:00;14.50;72.50
15099;DHT22;33900;53.640;9.942;2024-03-25T14:14:25;14.40;72.70
15099;DHT22;33900;53.640;9.942;2024-03-25T14:16:51;14.40;73.10
15099;DHT22;33900;53.640;9.942;2024-03-25T14:19:17;14.40;73.70
15099;DHT22;33900;53.640;9.942;2024-03-25T14:21:43;14.50;73.90
15099;DHT22;33900;53.640;9.942;2024-03-25T14:24:08;14.50;73.40
15099;DHT22;33900;53.640;9.942;2024-03-25T14:26:34;14.50;72.40
15099;DHT22;33900;53.640;9.942;2024-03-25T14:29:00;14.60;72.50
15099;DHT22;33900;53.640;9.942;2024-03-25T14:31:26;14.60;72.90
15099;DHT22;33900;53.640;9.942;2024-03-25T14:33:51;14.60;72.70
15099;DHT22;33900;53.640;9.942;2024-03-25T14:36:17;14.60;72.70
15099;DHT22;33900;53.640;9.942;2024-03-25T14:38:42;14.60;71.90
15099;DHT22;33900;53.640;9.942;2024-03-25T14:41:10;14.50;71.80
15099;DHT22;33900;53.640;9.942;2024-03-25T14:43:36;14.40;71.50
15099;DHT22;33900;53.640;9.942;2024-03-25T14:46:02;14.30;71.10
15099;DHT22;33900;53.640;9.942;2024-03-25T14:48:27;14.20;70.60
15099;DHT22;33900;53.640;9.942;2024-03-25T14:50:53;14.20;69.80
15099;DHT22;33900;53.640;9.942;2024-03-25T14:53:19;14.20;70.60
15099;DHT22;33900;53.640;9.942;2024-03-25T14:55:44;14.20;71.60
15099;DHT22;33900;53.640;9.942;2024-03-25T14:58:10;14.30;71.20
15099;DHT22;33900;53.640;9.942;2024-03-25T15:00:36;14.20;69.20
15099;DHT22;33900;53.640;9.942;2024-03-25T15:03:02;14.20;70.30
15099;DHT22;33900;53.640;9.942;2024-03-25T15:05:28;14.30;70.00
15099;DHT22;33900;53.640;9.942;2024-03-25T15:07:53;14.30;70.20
15099;DHT22;33900;53.640;9.942;2024-03-25T15:10:19;14.30;70.20
15099;DHT22;33900;53.640;9.942;2024-03-25T15:12:47;14.30;70.30
15099;DHT22;33900;53.640;9.942;2024-03-25T15:15:13;14.40;70.80
15099;DHT22;33900;53.640;9.942;2024-03-25T15:17:39;14.40;71.20
15099;DHT22;33900;53.640;9.942;2024-03-25T15:20:04;14.50;71.30
15099;DHT22;33900;53.640;9.942;2024-03-25T15:22:31;14.40;70.10
15099;DHT22;33900;53.640;9.942;2024-03-25T15:24:57;14.50;70.40
15099;DHT22;33900;53.640;9.942;2024-03-25T15:27:22;14.50;69.20
15099;DHT22;33900;53.640;9.942;2024-03-25T15:29:48;14.50;71.00
15099;DHT22;33900;53.640;9.942;2024-03-25T15:32:14;14.50;70.40
15099;DHT22;33900;53.640;9.942;2024-03-25T15:34:41;14.50;70.60
15099;DHT22;33900;53.640;9.942;2024-03-25T15:37:07;14.50;70.60